createdAt,value
2018-12-18T00:00:40.468Z,23.63
2018-12-18T00:05:44.968Z,21.87
2018-12-18T00:10:54.808Z,21.90
2018-12-18T00:15:59.299Z,23.60
2018-12-18T00:21:04.328Z,20.97
2018-12-18T00:26:09.273Z,21.93
2018-12-18T00:31:14.586Z,21.40
2018-12-18T00:36:20.391Z,22.10
2018-12-18T00:46:48.406Z,22.57
2018-12-18T00:51:54.927Z,22.20
2018-12-18T00:56:59.785Z,24.60
2018-12-18T01:02:04.842Z,22.20
2018-12-18T01:12:30.627Z,21.97
2018-12-18T01:17:36.349Z,20.00
2018-12-18T01:28:02.195Z,20.70
2018-12-18T01:33:07.255Z,17.77
2018-12-18T01:38:13.148Z,18.50
2018-12-18T01:43:18.352Z,19.37
2018-12-18T01:48:24.967Z,19.82
2018-12-18T01:53:30.944Z,21.13
2018-12-18T01:58:36.086Z,20.00
2018-12-18T02:03:44.407Z,21.80
2018-12-18T02:08:51.077Z,20.23
2018-12-18T02:13:58.408Z,20.67
2018-12-18T02:19:03.595Z,20.90
2018-12-18T02:24:09.141Z,21.70
2018-12-18T02:29:15.094Z,20.00
2018-12-18T02:34:21.127Z,18.70
2018-12-18T02:39:27.659Z,19.77
2018-12-18T02:44:34.029Z,17.87
2018-12-18T02:49:39.998Z,20.03
2018-12-18T02:54:45.306Z,17.90
2018-12-18T02:59:51.409Z,18.33
2018-12-18T03:04:57.034Z,18.00
2018-12-18T03:15:22.163Z,18.10
2018-12-18T03:20:29.176Z,18.17
2018-12-18T03:25:38.467Z,17.23
2018-12-18T03:30:43.080Z,17.97
2018-12-18T03:35:48.152Z,18.93
2018-12-18T03:40:55.791Z,17.70
2018-12-18T03:51:37.932Z,18.67
2018-12-18T03:56:43.104Z,17.97
2018-12-18T04:01:48.595Z,17.63
2018-12-18T04:06:54.145Z,18.60
2018-12-18T04:12:04.598Z,18.60
2018-12-18T04:17:11.119Z,18.47
2018-12-18T04:22:16.534Z,18.20
2018-12-18T04:27:21.706Z,18.57
2018-12-18T04:32:26.567Z,17.70
2018-12-18T04:37:39.363Z,16.17
2018-12-18T04:42:44.743Z,16.20
2018-12-18T04:47:49.997Z,17.97
2018-12-18T04:52:55.668Z,15.80
2018-12-18T04:58:02.811Z,17.17
2018-12-18T05:03:07.762Z,16.10
2018-12-18T05:08:12.331Z,15.50
2018-12-18T05:13:18.142Z,15.60
2018-12-18T05:18:30.175Z,14.53
2018-12-18T05:23:35.373Z,15.83
2018-12-18T05:28:41.335Z,16.03
2018-12-18T05:33:48.065Z,17.27
2018-12-18T05:38:53.479Z,17.40
2018-12-18T05:49:20.020Z,16.40
2018-12-18T05:54:27.022Z,16.77
2018-12-18T05:59:32.027Z,15.40
2018-12-18T06:04:38.311Z,15.43
2018-12-18T06:09:44.025Z,13.37
2018-12-18T06:14:50.283Z,13.00
2018-12-18T06:19:55.040Z,12.90
2018-12-18T06:25:00.203Z,12.90
2018-12-18T06:30:05.594Z,12.77
2018-12-18T06:35:10.723Z,11.57
2018-12-18T06:41:09.422Z,11.08
2018-12-18T06:46:16.338Z,11.50
2018-12-18T06:51:22.894Z,11.20
2018-12-18T06:56:27.445Z,10.17
2018-12-18T07:01:34.296Z,9.80
2018-12-18T07:06:40.231Z,9.30
2018-12-18T07:11:45.444Z,8.80
2018-12-18T07:16:50.989Z,9.80
2018-12-18T07:27:17.161Z,8.87
2018-12-18T07:32:21.913Z,9.00
2018-12-18T07:37:26.940Z,8.80
2018-12-18T07:42:32.511Z,10.00
2018-12-18T07:47:37.553Z,9.43
2018-12-18T07:52:42.708Z,9.80
2018-12-18T07:57:50.443Z,10.73
2018-12-18T08:02:55.132Z,10.30
2018-12-18T08:08:01.988Z,10.73
2018-12-18T08:13:08.890Z,9.40
2018-12-18T08:18:14.802Z,10.10
2018-12-18T08:23:19.642Z,9.67
2018-12-18T08:28:25.112Z,9.47
2018-12-18T08:33:30.384Z,8.60
2018-12-18T08:38:35.934Z,10.20
2018-12-18T08:43:40.869Z,10.03
2018-12-18T08:48:46.889Z,9.40
2018-12-18T08:53:52.412Z,9.50
2018-12-18T08:58:57.927Z,10.60
2018-12-18T09:04:07.424Z,10.43
2018-12-18T09:14:34.439Z,8.83
2018-12-18T09:19:39.547Z,9.30
2018-12-18T09:24:44.796Z,9.77
2018-12-18T09:29:50.479Z,8.30
2018-12-18T09:34:55.288Z,7.77
2018-12-18T09:40:02.300Z,7.90
2018-12-18T09:45:08.614Z,6.73
2018-12-18T09:50:15.574Z,7.27
2018-12-18T09:55:20.905Z,7.87
2018-12-18T10:00:27.255Z,6.60
2018-12-18T10:05:33.865Z,5.70
2018-12-18T10:10:39.293Z,6.40
2018-12-18T10:15:44.515Z,4.67
2018-12-18T10:20:49.713Z,4.30
2018-12-18T10:25:54.426Z,5.23
2018-12-18T10:30:59.346Z,4.40
2018-12-18T10:36:04.017Z,5.73
2018-12-18T10:41:08.932Z,4.20
2018-12-18T10:46:14.322Z,3.40
2018-12-18T10:56:38.795Z,4.10
2018-12-18T11:01:48.218Z,4.43
2018-12-18T11:06:54.320Z,4.03
2018-12-18T11:17:27.912Z,3.90
2018-12-18T11:22:33.426Z,3.70
2018-12-18T11:33:37.077Z,3.50
2018-12-18T11:44:42.288Z,3.13
2018-12-18T11:49:46.815Z,2.80
2018-12-18T11:54:51.498Z,3.00
2018-12-18T12:29:28.139Z,1.83
2018-12-18T12:34:34.455Z,1.77
2018-12-18T14:39:09.855Z,1.90
2018-12-18T14:44:15.632Z,1.63
2018-12-18T14:49:20.710Z,2.00
2018-12-18T14:54:47.323Z,1.63
2018-12-18T14:59:52.300Z,1.53
2018-12-18T15:04:57.010Z,2.17
2018-12-18T15:10:02.197Z,2.53
2018-12-18T15:15:07.679Z,1.77
2018-12-18T15:20:11.803Z,2.00
2018-12-18T15:25:16.997Z,2.00
2018-12-18T15:30:25.913Z,1.60
2018-12-18T15:35:30.066Z,1.73
2018-12-18T15:40:34.642Z,2.30
2018-12-18T15:45:40.045Z,2.10
2018-12-18T15:50:44.957Z,2.40
2018-12-18T15:55:49.510Z,3.07
2018-12-18T16:00:55.400Z,3.03
2018-12-18T16:06:00.282Z,2.43
2018-12-18T16:11:04.539Z,4.43
2018-12-18T16:16:10.233Z,6.03
2018-12-18T16:21:15.660Z,4.33
2018-12-18T16:26:20.051Z,4.30
2018-12-18T16:31:25.215Z,4.30
2018-12-18T16:36:29.874Z,3.80
2018-12-18T16:41:34.628Z,4.70
2018-12-18T16:46:39.014Z,3.90
2018-12-18T16:51:44.353Z,5.00
2018-12-18T16:56:48.619Z,4.97
2018-12-18T17:01:53.249Z,3.87
2018-12-18T17:06:58.515Z,4.33
2018-12-18T17:12:03.052Z,3.87
2018-12-18T17:17:07.943Z,4.50
2018-12-18T17:22:13.511Z,4.23
2018-12-18T17:27:18.098Z,4.57
2018-12-18T17:32:25.349Z,4.03
2018-12-18T17:42:55.178Z,3.77
2018-12-18T17:47:59.845Z,4.27
2018-12-18T17:53:05.327Z,4.03
2018-12-18T17:58:11.031Z,3.60
2018-12-18T18:08:39.015Z,3.20
2018-12-18T18:13:43.946Z,3.00
2018-12-18T18:18:50.428Z,3.10
2018-12-18T18:23:55.573Z,2.40
2018-12-18T18:29:01.279Z,2.23
2018-12-18T18:34:05.666Z,2.30
2018-12-18T18:39:10.374Z,2.47
2018-12-18T18:44:14.792Z,2.07
2018-12-18T18:49:20.284Z,2.03
2018-12-18T18:54:24.975Z,2.80
2018-12-18T18:59:30.127Z,2.03
2018-12-18T19:04:35.576Z,1.90
2018-12-18T19:09:40.825Z,1.70
2018-12-18T19:14:45.447Z,2.07
2018-12-18T19:19:51.746Z,4.20
2018-12-18T19:24:57.531Z,2.50
2018-12-18T19:30:02.333Z,1.93
2018-12-18T19:35:06.729Z,2.10
2018-12-18T19:40:11.693Z,2.80
2018-12-18T19:45:16.520Z,2.50
2018-12-18T19:50:21.203Z,2.20
2018-12-18T19:55:26.228Z,2.10
2018-12-18T20:00:31.417Z,1.87
2018-12-18T20:05:38.381Z,2.17
2018-12-18T20:10:43.267Z,1.97
2018-12-18T20:21:17.146Z,2.63
2018-12-18T20:26:22.249Z,2.70
2018-12-18T20:31:27.213Z,2.27
2018-12-18T20:36:32.019Z,2.13
2018-12-18T20:41:36.515Z,2.10
2018-12-18T20:46:41.399Z,6.97
2018-12-18T20:51:45.757Z,2.17
2018-12-18T20:56:50.551Z,3.13
2018-12-18T21:01:57.535Z,5.00
2018-12-18T21:07:02.867Z,4.50
2018-12-18T21:12:08.256Z,2.60
2018-12-18T21:17:14.415Z,3.43
2018-12-18T21:22:19.230Z,2.57
2018-12-18T21:27:25.603Z,3.27
2018-12-18T21:32:30.792Z,2.57
2018-12-18T21:37:36.214Z,3.67
2018-12-18T21:48:03.874Z,2.50
2018-12-18T21:53:09.894Z,2.70
2018-12-18T21:58:14.705Z,1.90
2018-12-18T22:03:19.293Z,2.50
2018-12-18T22:08:25.222Z,2.77
2018-12-18T22:13:30.873Z,2.40
2018-12-18T22:18:37.213Z,2.20
2018-12-18T22:23:42.626Z,2.53
2018-12-18T22:28:47.453Z,2.10
2018-12-18T22:33:52.649Z,2.73
2018-12-18T22:38:57.881Z,2.33
2018-12-18T22:44:03.185Z,2.60
2018-12-18T22:54:35.754Z,2.30
2018-12-18T22:59:40.408Z,2.37
2018-12-18T23:04:46.650Z,2.17
2018-12-18T23:09:51.529Z,2.70
2018-12-18T23:14:59.102Z,2.57
2018-12-18T23:20:04.524Z,2.13
2018-12-18T23:25:09.904Z,2.40
2018-12-18T23:30:15.715Z,2.50
2018-12-18T23:35:20.540Z,2.53
2018-12-18T23:40:25.375Z,3.40
2018-12-18T23:45:30.724Z,2.93
2018-12-18T23:50:35.832Z,2.10
